sensor_id;sensor_type;location;lat;lon;timestamp;P1;durP1;ratioP1;P2;durP2;ratioP2
24161;SDS011;12318;51.262;7.066;2022-09-09T00:01:04;6.80;;;1.38;;
24161;SDS011;12318;51.262;7.066;2022-09-09T00:03:57;3.72;;;1.20;;
24161;SDS011;12318;51.262;7.066;2022-09-09T00:06:29;7.60;;;1.33;;
24161;SDS011;12318;51.262;7.066;2022-09-09T00:09:05;5.00;;;1.15;;
24161;SDS011;12318;51.262;7.066;2022-09-09T00:23:01;8.70;;;2.40;;
24161;SDS011;12318;51.262;7.066;2022-09-09T00:28:46;6.47;;;2.42;;
24161;SDS011;12318;51.262;7.066;2022-09-09T00:31:16;9.27;;;3.17;;
24161;SDS011;12318;51.262;7.066;2022-09-09T00:33:48;7.97;;;3.15;;
24161;SDS011;12318;51.262;7.066;2022-09-09T00:36:18;7.32;;;3.17;;
24161;SDS011;12318;51.262;7.066;2022-09-09T00:38:52;10.88;;;3.45;;
24161;SDS011;12318;51.262;7.066;2022-09-09T00:49:49;13.68;;;4.15;;
24161;SDS011;12318;51.262;7.066;2022-09-09T00:58:13;9.23;;;3.38;;
24161;SDS011;12318;51.262;7.066;2022-09-09T01:00:47;9.40;;;3.50;;
24161;SDS011;12318;51.262;7.066;2022-09-09T01:06:12;10.75;;;3.30;;
24161;SDS011;12318;51.262;7.066;2022-09-09T01:11:43;9.93;;;3.35;;
24161;SDS011;12318;51.262;7.066;2022-09-09T01:16:55;8.32;;;3.53;;
24161;SDS011;12318;51.262;7.066;2022-09-09T01:19:27;12.32;;;3.92;;
24161;SDS011;12318;51.262;7.066;2022-09-09T01:27:29;8.98;;;3.03;;
24161;SDS011;12318;51.262;7.066;2022-09-09T01:30:09;8.10;;;2.85;;
24161;SDS011;12318;51.262;7.066;2022-09-09T01:32:43;9.23;;;2.63;;
24161;SDS011;12318;51.262;7.066;2022-09-09T01:37:47;8.23;;;3.13;;
24161;SDS011;12318;51.262;7.066;2022-09-09T01:40:26;12.25;;;3.55;;
24161;SDS011;12318;51.262;7.066;2022-09-09T01:42:52;7.60;;;2.72;;
24161;SDS011;12318;51.262;7.066;2022-09-09T01:45:19;10.43;;;2.90;;
24161;SDS011;12318;51.262;7.066;2022-09-09T01:47:46;8.75;;;3.13;;
24161;SDS011;12318;51.262;7.066;2022-09-09T01:53:14;8.23;;;3.38;;
24161;SDS011;12318;51.262;7.066;2022-09-09T01:55:49;9.32;;;2.90;;
24161;SDS011;12318;51.262;7.066;2022-09-09T01:58:33;9.55;;;2.38;;
24161;SDS011;12318;51.262;7.066;2022-09-09T02:04:23;7.65;;;2.45;;
24161;SDS011;12318;51.262;7.066;2022-09-09T02:07:17;8.27;;;2.45;;
24161;SDS011;12318;51.262;7.066;2022-09-09T02:09:57;6.03;;;2.30;;
24161;SDS011;12318;51.262;7.066;2022-09-09T02:12:36;9.95;;;2.20;;
24161;SDS011;12318;51.262;7.066;2022-09-09T02:15:11;9.73;;;2.15;;
24161;SDS011;12318;51.262;7.066;2022-09-09T02:18:00;6.40;;;2.28;;
24161;SDS011;12318;51.262;7.066;2022-09-09T02:20:46;5.60;;;1.83;;
24161;SDS011;12318;51.262;7.066;2022-09-09T02:23:16;9.07;;;2.22;;
24161;SDS011;12318;51.262;7.066;2022-09-09T02:25:45;5.30;;;1.75;;
24161;SDS011;12318;51.262;7.066;2022-09-09T02:28:16;4.25;;;1.67;;
24161;SDS011;12318;51.262;7.066;2022-09-09T02:30:46;4.00;;;1.60;;
24161;SDS011;12318;51.262;7.066;2022-09-09T02:33:18;5.53;;;1.70;;
24161;SDS011;12318;51.262;7.066;2022-09-09T02:38:42;5.07;;;1.45;;
24161;SDS011;12318;51.262;7.066;2022-09-09T02:41:15;6.45;;;1.90;;
24161;SDS011;12318;51.262;7.066;2022-09-09T02:43:48;5.80;;;1.52;;
24161;SDS011;12318;51.262;7.066;2022-09-09T02:49:13;6.18;;;1.60;;
24161;SDS011;12318;51.262;7.066;2022-09-09T02:52:06;6.13;;;1.40;;
24161;SDS011;12318;51.262;7.066;2022-09-09T02:54:35;9.88;;;2.05;;
24161;SDS011;12318;51.262;7.066;2022-09-09T02:59:35;6.00;;;1.77;;
24161;SDS011;12318;51.262;7.066;2022-09-09T03:02:04;7.43;;;1.45;;
24161;SDS011;12318;51.262;7.066;2022-09-09T03:04:32;7.95;;;1.65;;
24161;SDS011;12318;51.262;7.066;2022-09-09T03:06:58;6.38;;;1.60;;
24161;SDS011;12318;51.262;7.066;2022-09-09T03:09:28;8.02;;;1.73;;
24161;SDS011;12318;51.262;7.066;2022-09-09T03:11:54;8.63;;;2.00;;
24161;SDS011;12318;51.262;7.066;2022-09-09T03:14:26;8.20;;;1.75;;
24161;SDS011;12318;51.262;7.066;2022-09-09T03:16:55;5.90;;;1.60;;
24161;SDS011;12318;51.262;7.066;2022-09-09T03:19:23;7.38;;;1.60;;
24161;SDS011;12318;51.262;7.066;2022-09-09T03:21:53;11.25;;;1.58;;
24161;SDS011;12318;51.262;7.066;2022-09-09T03:24:19;6.32;;;1.70;;
24161;SDS011;12318;51.262;7.066;2022-09-09T03:26:45;9.18;;;2.33;;
24161;SDS011;12318;51.262;7.066;2022-09-09T03:29:11;6.40;;;1.83;;
24161;SDS011;12318;51.262;7.066;2022-09-09T03:31:37;6.80;;;1.73;;
24161;SDS011;12318;51.262;7.066;2022-09-09T03:34:05;7.25;;;1.67;;
24161;SDS011;12318;51.262;7.066;2022-09-09T03:36:32;10.90;;;1.85;;
24161;SDS011;12318;51.262;7.066;2022-09-09T03:38:58;8.70;;;1.60;;
24161;SDS011;12318;51.262;7.066;2022-09-09T03:41:24;6.05;;;1.55;;
24161;SDS011;12318;51.262;7.066;2022-09-09T03:44:06;8.40;;;1.85;;
24161;SDS011;12318;51.262;7.066;2022-09-09T03:46:32;7.30;;;1.45;;
24161;SDS011;12318;51.262;7.066;2022-09-09T03:48:58;7.85;;;1.98;;
24161;SDS011;12318;51.262;7.066;2022-09-09T03:51:25;7.43;;;1.80;;
24161;SDS011;12318;51.262;7.066;2022-09-09T03:53:50;6.53;;;1.70;;
24161;SDS011;12318;51.262;7.066;2022-09-09T03:56:16;8.15;;;2.15;;
24161;SDS011;12318;51.262;7.066;2022-09-09T03:58:55;6.22;;;2.00;;
24161;SDS011;12318;51.262;7.066;2022-09-09T04:01:22;7.07;;;1.80;;
24161;SDS011;12318;51.262;7.066;2022-09-09T04:03:47;9.38;;;1.80;;
24161;SDS011;12318;51.262;7.066;2022-09-09T04:06:14;6.60;;;1.50;;
24161;SDS011;12318;51.262;7.066;2022-09-09T04:08:41;5.45;;;1.65;;
24161;SDS011;12318;51.262;7.066;2022-09-09T04:11:07;11.27;;;1.88;;
24161;SDS011;12318;51.262;7.066;2022-09-09T04:13:36;5.53;;;1.70;;
24161;SDS011;12318;51.262;7.066;2022-09-09T04:16:04;8.80;;;2.22;;
24161;SDS011;12318;51.262;7.066;2022-09-09T04:18:35;8.13;;;2.20;;
24161;SDS011;12318;51.262;7.066;2022-09-09T04:21:01;7.35;;;2.20;;
24161;SDS011;12318;51.262;7.066;2022-09-09T04:23:28;7.80;;;1.88;;
24161;SDS011;12318;51.262;7.066;2022-09-09T04:25:54;11.35;;;2.08;;
24161;SDS011;12318;51.262;7.066;2022-09-09T04:28:23;9.93;;;2.17;;
24161;SDS011;12318;51.262;7.066;2022-09-09T04:30:51;8.07;;;1.77;;
24161;SDS011;12318;51.262;7.066;2022-09-09T04:33:17;7.18;;;2.03;;
24161;SDS011;12318;51.262;7.066;2022-09-09T04:35:47;14.50;;;3.38;;
24161;SDS011;12318;51.262;7.066;2022-09-09T04:38:30;7.32;;;2.13;;
24161;SDS011;12318;51.262;7.066;2022-09-09T04:40:58;7.65;;;2.00;;
24161;SDS011;12318;51.262;7.066;2022-09-09T04:43:30;9.43;;;2.03;;
24161;SDS011;12318;51.262;7.066;2022-09-09T04:46:00;7.50;;;1.58;;
24161;SDS011;12318;51.262;7.066;2022-09-09T04:48:26;11.70;;;2.28;;
24161;SDS011;12318;51.262;7.066;2022-09-09T04:50:56;10.38;;;1.95;;
24161;SDS011;12318;51.262;7.066;2022-09-09T04:53:21;7.90;;;1.95;;
24161;SDS011;12318;51.262;7.066;2022-09-09T04:55:47;9.95;;;1.85;;
24161;SDS011;12318;51.262;7.066;2022-09-09T05:01:13;10.88;;;2.28;;
24161;SDS011;12318;51.262;7.066;2022-09-09T05:03:39;9.45;;;2.03;;
24161;SDS011;12318;51.262;7.066;2022-09-09T05:08:38;11.40;;;2.30;;
24161;SDS011;12318;51.262;7.066;2022-09-09T05:13:48;12.57;;;2.30;;
24161;SDS011;12318;51.262;7.066;2022-09-09T05:16:15;6.13;;;1.52;;
24161;SDS011;12318;51.262;7.066;2022-09-09T05:18:47;6.32;;;1.77;;
24161;SDS011;12318;51.262;7.066;2022-09-09T05:21:13;6.30;;;1.65;;
24161;SDS011;12318;51.262;7.066;2022-09-09T05:23:44;8.95;;;1.70;;
24161;SDS011;12318;51.262;7.066;2022-09-09T05:26:15;7.50;;;1.88;;
24161;SDS011;12318;51.262;7.066;2022-09-09T05:31:52;7.55;;;1.63;;
24161;SDS011;12318;51.262;7.066;2022-09-09T05:34:18;6.47;;;1.75;;
24161;SDS011;12318;51.262;7.066;2022-09-09T05:36:45;5.57;;;1.58;;
24161;SDS011;12318;51.262;7.066;2022-09-09T05:39:25;7.95;;;1.85;;
24161;SDS011;12318;51.262;7.066;2022-09-09T05:41:50;10.95;;;1.88;;
24161;SDS011;12318;51.262;7.066;2022-09-09T05:44:16;11.57;;;2.15;;
24161;SDS011;12318;51.262;7.066;2022-09-09T05:46:41;8.18;;;1.83;;
24161;SDS011;12318;51.262;7.066;2022-09-09T05:49:13;9.90;;;1.98;;
24161;SDS011;12318;51.262;7.066;2022-09-09T05:51:40;10.05;;;2.10;;
24161;SDS011;12318;51.262;7.066;2022-09-09T05:54:07;7.57;;;1.77;;
24161;SDS011;12318;51.262;7.066;2022-09-09T05:56:33;8.82;;;2.28;;
24161;SDS011;12318;51.262;7.066;2022-09-09T05:58:59;7.80;;;1.75;;
24161;SDS011;12318;51.262;7.066;2022-09-09T06:01:30;10.50;;;1.90;;
24161;SDS011;12318;51.262;7.066;2022-09-09T06:03:57;8.40;;;1.60;;
24161;SDS011;12318;51.262;7.066;2022-09-09T06:06:26;10.93;;;2.00;;
24161;SDS011;12318;51.262;7.066;2022-09-09T06:09:02;7.07;;;1.60;;
24161;SDS011;12318;51.262;7.066;2022-09-09T06:11:34;9.73;;;1.80;;
24161;SDS011;12318;51.262;7.066;2022-09-09T06:14:01;7.43;;;1.75;;
24161;SDS011;12318;51.262;7.066;2022-09-09T06:16:28;8.77;;;2.30;;
24161;SDS011;12318;51.262;7.066;2022-09-09T06:19:08;9.15;;;2.08;;
24161;SDS011;12318;51.262;7.066;2022-09-09T06:21:34;6.93;;;1.90;;
24161;SDS011;12318;51.262;7.066;2022-09-09T06:24:02;10.68;;;2.58;;
24161;SDS011;12318;51.262;7.066;2022-09-09T06:26:32;8.55;;;1.58;;
24161;SDS011;12318;51.262;7.066;2022-09-09T06:29:04;7.30;;;2.17;;
24161;SDS011;12318;51.262;7.066;2022-09-09T06:31:31;8.00;;;1.50;;
24161;SDS011;12318;51.262;7.066;2022-09-09T06:33:59;10.30;;;2.00;;
24161;SDS011;12318;51.262;7.066;2022-09-09T06:36:26;5.80;;;1.70;;
24161;SDS011;12318;51.262;7.066;2022-09-09T06:38:57;8.98;;;1.60;;
24161;SDS011;12318;51.262;7.066;2022-09-09T06:41:45;8.13;;;1.98;;
24161;SDS011;12318;51.262;7.066;2022-09-09T06:44:22;7.63;;;1.75;;
24161;SDS011;12318;51.262;7.066;2022-09-09T06:46:48;9.20;;;1.50;;
24161;SDS011;12318;51.262;7.066;2022-09-09T06:52:13;7.38;;;1.40;;
24161;SDS011;12318;51.262;7.066;2022-09-09T06:54:45;8.23;;;1.40;;
24161;SDS011;12318;51.262;7.066;2022-09-09T06:57:11;8.88;;;1.67;;
24161;SDS011;12318;51.262;7.066;2022-09-09T06:59:37;9.93;;;1.60;;
24161;SDS011;12318;51.262;7.066;2022-09-09T07:02:03;9.75;;;1.40;;
24161;SDS011;12318;51.262;7.066;2022-09-09T07:04:41;7.05;;;1.30;;
24161;SDS011;12318;51.262;7.066;2022-09-09T07:07:27;5.13;;;1.40;;
24161;SDS011;12318;51.262;7.066;2022-09-09T07:09:57;6.07;;;1.50;;
24161;SDS011;12318;51.262;7.066;2022-09-09T07:12:28;5.30;;;1.48;;
24161;SDS011;12318;51.262;7.066;2022-09-09T07:14:59;7.35;;;1.52;;
24161;SDS011;12318;51.262;7.066;2022-09-09T07:17:39;5.53;;;1.13;;
24161;SDS011;12318;51.262;7.066;2022-09-09T07:20:08;9.48;;;1.85;;
24161;SDS011;12318;51.262;7.066;2022-09-09T07:22:42;7.15;;;1.52;;
24161;SDS011;12318;51.262;7.066;2022-09-09T07:25:13;10.48;;;1.60;;
24161;SDS011;12318;51.262;7.066;2022-09-09T07:27:54;6.90;;;1.35;;
24161;SDS011;12318;51.262;7.066;2022-09-09T07:30:38;7.95;;;1.33;;
24161;SDS011;12318;51.262;7.066;2022-09-09T07:33:16;8.25;;;1.70;;
24161;SDS011;12318;51.262;7.066;2022-09-09T07:36:01;8.45;;;1.25;;
24161;SDS011;12318;51.262;7.066;2022-09-09T07:38:49;9.82;;;1.83;;
24161;SDS011;12318;51.262;7.066;2022-09-09T07:43:50;9.27;;;1.73;;
24161;SDS011;12318;51.262;7.066;2022-09-09T07:46:25;9.27;;;1.58;;
24161;SDS011;12318;51.262;7.066;2022-09-09T07:51:52;4.53;;;1.40;;
24161;SDS011;12318;51.262;7.066;2022-09-09T07:58:04;6.72;;;1.38;;
24161;SDS011;12318;51.262;7.066;2022-09-09T08:00:45;4.53;;;1.25;;
24161;SDS011;12318;51.262;7.066;2022-09-09T08:03:27;5.97;;;1.38;;
24161;SDS011;12318;51.262;7.066;2022-09-09T08:06:05;8.73;;;1.50;;
24161;SDS011;12318;51.262;7.066;2022-09-09T08:08:41;4.35;;;1.25;;
24161;SDS011;12318;51.262;7.066;2022-09-09T08:11:14;10.85;;;1.52;;
24161;SDS011;12318;51.262;7.066;2022-09-09T08:13:45;9.25;;;1.52;;
24161;SDS011;12318;51.262;7.066;2022-09-09T08:16:30;9.95;;;1.58;;
24161;SDS011;12318;51.262;7.066;2022-09-09T08:19:17;5.90;;;1.42;;
24161;SDS011;12318;51.262;7.066;2022-09-09T08:21:54;10.25;;;1.42;;
24161;SDS011;12318;51.262;7.066;2022-09-09T08:24:29;6.40;;;1.77;;
24161;SDS011;12318;51.262;7.066;2022-09-09T08:27:02;5.63;;;1.38;;
24161;SDS011;12318;51.262;7.066;2022-09-09T08:29:28;8.93;;;1.48;;
24161;SDS011;12318;51.262;7.066;2022-09-09T08:38:40;7.97;;;1.70;;
24161;SDS011;12318;51.262;7.066;2022-09-09T08:53:14;8.68;;;1.60;;
24161;SDS011;12318;51.262;7.066;2022-09-09T08:55:46;7.80;;;1.67;;
24161;SDS011;12318;51.262;7.066;2022-09-09T08:58:35;6.07;;;1.55;;
24161;SDS011;12318;51.262;7.066;2022-09-09T09:04:11;7.10;;;1.65;;
24161;SDS011;12318;51.262;7.066;2022-09-09T09:07:02;6.57;;;1.55;;
24161;SDS011;12318;51.262;7.066;2022-09-09T09:12:52;7.25;;;1.30;;
24161;SDS011;12318;51.262;7.066;2022-09-09T09:15:40;8.98;;;1.50;;
24161;SDS011;12318;51.262;7.066;2022-09-09T09:18:17;7.60;;;1.70;;
24161;SDS011;12318;51.262;7.066;2022-09-09T09:23:59;7.60;;;1.25;;
24161;SDS011;12318;51.262;7.066;2022-09-09T09:26:40;9.23;;;1.42;;
24161;SDS011;12318;51.262;7.066;2022-09-09T09:29:41;6.60;;;1.52;;
24161;SDS011;12318;51.262;7.066;2022-09-09T09:32:22;7.50;;;1.30;;
24161;SDS011;12318;51.262;7.066;2022-09-09T09:35:19;6.75;;;1.67;;
24161;SDS011;12318;51.262;7.066;2022-09-09T09:37:47;9.05;;;1.40;;
24161;SDS011;12318;51.262;7.066;2022-09-09T09:40:16;10.57;;;1.38;;
24161;SDS011;12318;51.262;7.066;2022-09-09T09:43:02;6.00;;;1.35;;
24161;SDS011;12318;51.262;7.066;2022-09-09T09:45:35;2.83;;;0.90;;
24161;SDS011;12318;51.262;7.066;2022-09-09T09:48:11;7.05;;;1.48;;
24161;SDS011;12318;51.262;7.066;2022-09-09T09:50:54;6.97;;;1.08;;
24161;SDS011;12318;51.262;7.066;2022-09-09T09:53:33;7.43;;;1.50;;
24161;SDS011;12318;51.262;7.066;2022-09-09T09:56:10;8.70;;;1.30;;
24161;SDS011;12318;51.262;7.066;2022-09-09T10:01:31;5.47;;;1.20;;
24161;SDS011;12318;51.262;7.066;2022-09-09T10:03:59;4.38;;;0.93;;
24161;SDS011;12318;51.262;7.066;2022-09-09T10:06:44;4.90;;;0.90;;
24161;SDS011;12318;51.262;7.066;2022-09-09T10:12:08;4.25;;;1.00;;
24161;SDS011;12318;51.262;7.066;2022-09-09T10:15:29;6.28;;;0.90;;
24161;SDS011;12318;51.262;7.066;2022-09-09T10:33:37;5.68;;;0.93;;
24161;SDS011;12318;51.262;7.066;2022-09-09T10:39:04;4.20;;;1.00;;
24161;SDS011;12318;51.262;7.066;2022-09-09T10:41:44;6.77;;;1.00;;
24161;SDS011;12318;51.262;7.066;2022-09-09T10:44:38;6.32;;;1.10;;
24161;SDS011;12318;51.262;7.066;2022-09-09T10:56:12;6.28;;;0.90;;
24161;SDS011;12318;51.262;7.066;2022-09-09T10:58:52;3.50;;;0.90;;
24161;SDS011;12318;51.262;7.066;2022-09-09T11:01:39;3.28;;;0.82;;
24161;SDS011;12318;51.262;7.066;2022-09-09T11:05:04;4.38;;;0.90;;
24161;SDS011;12318;51.262;7.066;2022-09-09T11:07:58;8.18;;;1.05;;
24161;SDS011;12318;51.262;7.066;2022-09-09T11:15:13;4.18;;;0.90;;
24161;SDS011;12318;51.262;7.066;2022-09-09T11:17:10;2.38;;;0.70;;
24161;SDS011;12318;51.262;7.066;2022-09-09T11:19:58;5.85;;;1.02;;
24161;SDS011;12318;51.262;7.066;2022-09-09T11:22:49;3.05;;;0.82;;
24161;SDS011;12318;51.262;7.066;2022-09-09T11:25:27;3.67;;;0.90;;
24161;SDS011;12318;51.262;7.066;2022-09-09T11:31:53;4.65;;;0.80;;
24161;SDS011;12318;51.262;7.066;2022-09-09T11:41:38;5.88;;;0.75;;
24161;SDS011;12318;51.262;7.066;2022-09-09T11:44:16;4.05;;;0.90;;
24161;SDS011;12318;51.262;7.066;2022-09-09T11:47:03;5.43;;;1.10;;
24161;SDS011;12318;51.262;7.066;2022-09-09T11:53:18;4.78;;;1.10;;
24161;SDS011;12318;51.262;7.066;2022-09-09T12:01:30;7.53;;;1.13;;
24161;SDS011;12318;51.262;7.066;2022-09-09T12:04:12;5.00;;;0.98;;
24161;SDS011;12318;51.262;7.066;2022-09-09T12:07:05;4.43;;;1.30;;
24161;SDS011;12318;51.262;7.066;2022-09-09T12:09:58;5.93;;;0.98;;
24161;SDS011;12318;51.262;7.066;2022-09-09T12:12:33;3.95;;;0.90;;
24161;SDS011;12318;51.262;7.066;2022-09-09T12:17:57;3.75;;;0.90;;
24161;SDS011;12318;51.262;7.066;2022-09-09T12:20:50;2.97;;;0.75;;
24161;SDS011;12318;51.262;7.066;2022-09-09T12:24:02;4.25;;;1.17;;
24161;SDS011;12318;51.262;7.066;2022-09-09T12:29:26;4.43;;;1.00;;
24161;SDS011;12318;51.262;7.066;2022-09-09T12:32:25;5.85;;;0.93;;
24161;SDS011;12318;51.262;7.066;2022-09-09T12:34:52;9.23;;;1.60;;
24161;SDS011;12318;51.262;7.066;2022-09-09T12:37:34;17.27;;;2.03;;
24161;SDS011;12318;51.262;7.066;2022-09-09T12:40:14;10.50;;;1.92;;
24161;SDS011;12318;51.262;7.066;2022-09-09T12:42:48;11.18;;;1.40;;
24161;SDS011;12318;51.262;7.066;2022-09-09T12:45:16;10.55;;;1.40;;
24161;SDS011;12318;51.262;7.066;2022-09-09T12:48:04;7.72;;;1.60;;
24161;SDS011;12318;51.262;7.066;2022-09-09T12:50:44;10.07;;;1.25;;
24161;SDS011;12318;51.262;7.066;2022-09-09T12:53:19;6.30;;;1.30;;
24161;SDS011;12318;51.262;7.066;2022-09-09T12:58:27;9.88;;;1.75;;
24161;SDS011;12318;51.262;7.066;2022-09-09T13:01:00;6.18;;;1.50;;
24161;SDS011;12318;51.262;7.066;2022-09-09T13:03:42;7.68;;;1.35;;
24161;SDS011;12318;51.262;7.066;2022-09-09T13:06:13;10.68;;;1.95;;
24161;SDS011;12318;51.262;7.066;2022-09-09T13:08:51;8.25;;;1.52;;
24161;SDS011;12318;51.262;7.066;2022-09-09T13:11:22;7.32;;;1.27;;
24161;SDS011;12318;51.262;7.066;2022-09-09T13:13:56;5.50;;;1.05;;
24161;SDS011;12318;51.262;7.066;2022-09-09T13:16:27;6.15;;;1.30;;
24161;SDS011;12318;51.262;7.066;2022-09-09T13:18:58;4.50;;;1.27;;
24161;SDS011;12318;51.262;7.066;2022-09-09T13:21:32;10.55;;;1.63;;
24161;SDS011;12318;51.262;7.066;2022-09-09T13:23:59;8.52;;;2.13;;
24161;SDS011;12318;51.262;7.066;2022-09-09T13:26:28;12.85;;;1.58;;
24161;SDS011;12318;51.262;7.066;2022-09-09T13:28:55;10.98;;;1.50;;
24161;SDS011;12318;51.262;7.066;2022-09-09T13:31:33;10.13;;;1.77;;
24161;SDS011;12318;51.262;7.066;2022-09-09T13:34:13;7.00;;;1.45;;
24161;SDS011;12318;51.262;7.066;2022-09-09T13:37:39;7.97;;;1.42;;
24161;SDS011;12318;51.262;7.066;2022-09-09T13:39:56;7.47;;;1.65;;
24161;SDS011;12318;51.262;7.066;2022-09-09T13:42:25;7.20;;;1.50;;
24161;SDS011;12318;51.262;7.066;2022-09-09T13:44:53;8.05;;;1.55;;
24161;SDS011;12318;51.262;7.066;2022-09-09T13:47:22;4.55;;;1.15;;
24161;SDS011;12318;51.262;7.066;2022-09-09T13:50:23;6.07;;;1.48;;
24161;SDS011;12318;51.262;7.066;2022-09-09T13:52:53;5.67;;;1.67;;
24161;SDS011;12318;51.262;7.066;2022-09-09T13:55:28;6.15;;;1.33;;
24161;SDS011;12318;51.262;7.066;2022-09-09T13:57:59;3.70;;;1.08;;
24161;SDS011;12318;51.262;7.066;2022-09-09T14:00:28;3.65;;;0.80;;
24161;SDS011;12318;51.262;7.066;2022-09-09T14:02:55;4.38;;;1.23;;
24161;SDS011;12318;51.262;7.066;2022-09-09T14:05:22;6.28;;;1.17;;
24161;SDS011;12318;51.262;7.066;2022-09-09T14:07:56;6.35;;;1.00;;
24161;SDS011;12318;51.262;7.066;2022-09-09T14:10:27;3.95;;;1.10;;
24161;SDS011;12318;51.262;7.066;2022-09-09T14:12:53;7.80;;;1.40;;
24161;SDS011;12318;51.262;7.066;2022-09-09T14:15:19;6.63;;;1.50;;
24161;SDS011;12318;51.262;7.066;2022-09-09T14:17:49;7.75;;;1.67;;
24161;SDS011;12318;51.262;7.066;2022-09-09T14:20:19;5.47;;;1.20;;
24161;SDS011;12318;51.262;7.066;2022-09-09T14:23:02;7.13;;;1.17;;
24161;SDS011;12318;51.262;7.066;2022-09-09T14:25:31;5.78;;;1.50;;
24161;SDS011;12318;51.262;7.066;2022-09-09T14:27:58;6.90;;;1.40;;
24161;SDS011;12318;51.262;7.066;2022-09-09T14:30:24;8.68;;;1.35;;
24161;SDS011;12318;51.262;7.066;2022-09-09T14:32:50;5.25;;;1.00;;
24161;SDS011;12318;51.262;7.066;2022-09-09T14:35:15;6.28;;;1.40;;
24161;SDS011;12318;51.262;7.066;2022-09-09T14:37:43;4.93;;;1.13;;
24161;SDS011;12318;51.262;7.066;2022-09-09T14:40:09;5.07;;;1.20;;
24161;SDS011;12318;51.262;7.066;2022-09-09T14:42:36;3.70;;;1.08;;
24161;SDS011;12318;51.262;7.066;2022-09-09T14:45:02;10.32;;;1.75;;
24161;SDS011;12318;51.262;7.066;2022-09-09T14:47:27;5.45;;;1.10;;
24161;SDS011;12318;51.262;7.066;2022-09-09T14:49:54;5.50;;;1.33;;
24161;SDS011;12318;51.262;7.066;2022-09-09T14:52:19;5.35;;;1.42;;
24161;SDS011;12318;51.262;7.066;2022-09-09T14:54:46;4.82;;;1.10;;
24161;SDS011;12318;51.262;7.066;2022-09-09T14:57:11;6.60;;;1.48;;
24161;SDS011;12318;51.262;7.066;2022-09-09T14:59:37;7.40;;;1.20;;
24161;SDS011;12318;51.262;7.066;2022-09-09T15:02:10;5.82;;;1.33;;
24161;SDS011;12318;51.262;7.066;2022-09-09T15:04:38;4.30;;;1.20;;
24161;SDS011;12318;51.262;7.066;2022-09-09T15:07:04;5.35;;;1.60;;
24161;SDS011;12318;51.262;7.066;2022-09-09T15:09:30;10.38;;;1.88;;
24161;SDS011;12318;51.262;7.066;2022-09-09T15:11:55;8.27;;;1.40;;
24161;SDS011;12318;51.262;7.066;2022-09-09T15:14:21;18.00;;;1.88;;
24161;SDS011;12318;51.262;7.066;2022-09-09T15:16:47;13.88;;;2.20;;
24161;SDS011;12318;51.262;7.066;2022-09-09T15:19:12;16.58;;;1.85;;
24161;SDS011;12318;51.262;7.066;2022-09-09T15:21:38;13.13;;;2.08;;
24161;SDS011;12318;51.262;7.066;2022-09-09T15:24:04;20.80;;;1.80;;
24161;SDS011;12318;51.262;7.066;2022-09-09T15:26:32;5.05;;;1.65;;
24161;SDS011;12318;51.262;7.066;2022-09-09T15:28:57;4.07;;;1.58;;
24161;SDS011;12318;51.262;7.066;2022-09-09T15:31:30;3.15;;;1.73;;
24161;SDS011;12318;51.262;7.066;2022-09-09T15:34:00;6.00;;;2.20;;
24161;SDS011;12318;51.262;7.066;2022-09-09T15:39:05;4.90;;;1.77;;
24161;SDS011;12318;51.262;7.066;2022-09-09T15:41:34;5.13;;;1.73;;
24161;SDS011;12318;51.262;7.066;2022-09-09T15:44:03;4.88;;;1.95;;
24161;SDS011;12318;51.262;7.066;2022-09-09T15:46:29;9.52;;;2.00;;
24161;SDS011;12318;51.262;7.066;2022-09-09T15:51:37;5.20;;;1.70;;
24161;SDS011;12318;51.262;7.066;2022-09-09T15:54:04;4.97;;;1.73;;
24161;SDS011;12318;51.262;7.066;2022-09-09T15:56:31;5.93;;;1.40;;
24161;SDS011;12318;51.262;7.066;2022-09-09T15:58:57;4.43;;;1.38;;
24161;SDS011;12318;51.262;7.066;2022-09-09T16:01:25;6.32;;;1.98;;
24161;SDS011;12318;51.262;7.066;2022-09-09T16:03:57;7.45;;;1.58;;
24161;SDS011;12318;51.262;7.066;2022-09-09T16:06:25;6.43;;;1.90;;
24161;SDS011;12318;51.262;7.066;2022-09-09T16:08:53;4.70;;;1.70;;
24161;SDS011;12318;51.262;7.066;2022-09-09T16:14:08;7.05;;;2.15;;
24161;SDS011;12318;51.262;7.066;2022-09-09T16:16:34;6.82;;;2.00;;
24161;SDS011;12318;51.262;7.066;2022-09-09T16:19:06;4.60;;;1.88;;
24161;SDS011;12318;51.262;7.066;2022-09-09T16:24:02;7.53;;;2.17;;
24161;SDS011;12318;51.262;7.066;2022-09-09T16:26:30;5.57;;;2.03;;
24161;SDS011;12318;51.262;7.066;2022-09-09T16:28:57;10.70;;;2.70;;
24161;SDS011;12318;51.262;7.066;2022-09-09T16:31:25;10.65;;;3.05;;
24161;SDS011;12318;51.262;7.066;2022-09-09T16:34:04;6.25;;;2.30;;
24161;SDS011;12318;51.262;7.066;2022-09-09T16:36:31;23.63;;;3.03;;
24161;SDS011;12318;51.262;7.066;2022-09-09T16:38:59;16.73;;;3.33;;
24161;SDS011;12318;51.262;7.066;2022-09-09T16:41:28;10.00;;;3.33;;
24161;SDS011;12318;51.262;7.066;2022-09-09T16:44:00;7.60;;;2.70;;
24161;SDS011;12318;51.262;7.066;2022-09-09T16:46:30;6.93;;;2.80;;
24161;SDS011;12318;51.262;7.066;2022-09-09T16:48:59;7.60;;;2.90;;
24161;SDS011;12318;51.262;7.066;2022-09-09T16:51:30;7.55;;;2.40;;
24161;SDS011;12318;51.262;7.066;2022-09-09T16:54:13;7.88;;;2.75;;
24161;SDS011;12318;51.262;7.066;2022-09-09T16:56:41;7.70;;;2.50;;
24161;SDS011;12318;51.262;7.066;2022-09-09T16:59:09;9.75;;;3.17;;
24161;SDS011;12318;51.262;7.066;2022-09-09T17:01:40;6.28;;;2.60;;
24161;SDS011;12318;51.262;7.066;2022-09-09T17:04:11;6.75;;;2.08;;
24161;SDS011;12318;51.262;7.066;2022-09-09T17:06:40;7.75;;;2.78;;
24161;SDS011;12318;51.262;7.066;2022-09-09T17:09:10;7.03;;;2.97;;
24161;SDS011;12318;51.262;7.066;2022-09-09T17:11:37;8.07;;;2.67;;
24161;SDS011;12318;51.262;7.066;2022-09-09T17:14:05;9.82;;;3.17;;
24161;SDS011;12318;51.262;7.066;2022-09-09T17:16:34;7.45;;;2.80;;
24161;SDS011;12318;51.262;7.066;2022-09-09T17:19:01;7.55;;;3.08;;
24161;SDS011;12318;51.262;7.066;2022-09-09T17:21:28;6.38;;;2.30;;
24161;SDS011;12318;51.262;7.066;2022-09-09T17:23:55;9.25;;;3.83;;
24161;SDS011;12318;51.262;7.066;2022-09-09T17:26:22;8.73;;;2.97;;
24161;SDS011;12318;51.262;7.066;2022-09-09T17:28:51;6.57;;;3.67;;
24161;SDS011;12318;51.262;7.066;2022-09-09T17:31:18;8.02;;;1.90;;
24161;SDS011;12318;51.262;7.066;2022-09-09T17:33:46;5.63;;;1.73;;
24161;SDS011;12318;51.262;7.066;2022-09-09T17:36:15;9.30;;;1.73;;
24161;SDS011;12318;51.262;7.066;2022-09-09T17:38:43;5.88;;;1.77;;
24161;SDS011;12318;51.262;7.066;2022-09-09T17:41:14;5.00;;;2.28;;
24161;SDS011;12318;51.262;7.066;2022-09-09T17:43:42;4.70;;;1.85;;
24161;SDS011;12318;51.262;7.066;2022-09-09T17:46:12;12.73;;;3.60;;
24161;SDS011;12318;51.262;7.066;2022-09-09T17:48:40;5.53;;;2.40;;
24161;SDS011;12318;51.262;7.066;2022-09-09T17:51:08;6.97;;;2.20;;
24161;SDS011;12318;51.262;7.066;2022-09-09T17:53:38;6.28;;;2.40;;
24161;SDS011;12318;51.262;7.066;2022-09-09T17:56:05;8.07;;;2.53;;
24161;SDS011;12318;51.262;7.066;2022-09-09T17:58:33;8.50;;;4.30;;
24161;SDS011;12318;51.262;7.066;2022-09-09T18:01:03;6.35;;;3.17;;
24161;SDS011;12318;51.262;7.066;2022-09-09T18:03:32;6.35;;;2.20;;
24161;SDS011;12318;51.262;7.066;2022-09-09T18:05:59;7.10;;;2.17;;
24161;SDS011;12318;51.262;7.066;2022-09-09T18:08:28;7.38;;;2.10;;
24161;SDS011;12318;51.262;7.066;2022-09-09T18:10:54;7.13;;;2.03;;
24161;SDS011;12318;51.262;7.066;2022-09-09T18:13:27;6.00;;;2.22;;
24161;SDS011;12318;51.262;7.066;2022-09-09T18:15:53;7.55;;;2.58;;
24161;SDS011;12318;51.262;7.066;2022-09-09T18:18:20;6.60;;;2.22;;
24161;SDS011;12318;51.262;7.066;2022-09-09T18:20:46;8.88;;;2.22;;
24161;SDS011;12318;51.262;7.066;2022-09-09T18:23:32;7.78;;;2.08;;
24161;SDS011;12318;51.262;7.066;2022-09-09T18:26:06;5.95;;;2.17;;